Time;durP1;ratioP1;P1;durP2;ratioP2;P2;SDS_P1;SDS_P2;PMS_P1;PMS_P2;Temp;Humidity;BMP_temperature;BMP_pressure;BME280_temperature;BME280_humidity;BME280_pressure;Samples;Min_cycle;Max_cycle;Signal;HPM_P1;HPM_P2
2022/12/01 00:00:21;;;;;;;46.90;19.97;;;;;;;;;;5036354;28;20482;-76
2022/12/01 00:02:47;;;;;;;47.03;21.03;;;;;;;;;;5036290;28;20147;-77
2022/12/01 00:05:14;;;;;;;47.47;20.57;;;;;;;;;;5020117;28;20037;-78
2022/12/01 00:07:40;;;;;;;43.10;19.50;;;;;;;;;;5036247;28;20275;-77
2022/12/01 00:10:25;;;;;;;45.93;21.00;;;;;;;;;;5019637;28;20329;-77
2022/12/01 00:12:54;;;;;;;43.47;16.50;;;;;;;;;;5019619;28;20303;-76
2022/12/01 00:15:20;;;;;;;49.47;20.67;;;;;;;;;;5036076;28;20307;-76
2022/12/01 00:17:47;;;;;;;39.57;17.67;;;;;;;;;;5019154;28;20823;-77
2022/12/01 00:20:13;;;;;;;36.17;16.57;;;;;;;;;;5019145;28;20036;-76
2022/12/01 00:22:43;;;;;;;46.03;17.77;;;;;;;;;;5002817;28;20271;-77
2022/12/01 00:25:09;;;;;;;38.42;16.95;;;;;;;;;;5003044;28;20303;-77
2022/12/01 00:27:35;;;;;;;37.57;16.60;;;;;;;;;;5035600;28;20037;-78
2022/12/01 00:30:01;;;;;;;38.63;17.67;;;;;;;;;;5019048;28;20271;-79
2022/12/01 00:32:28;;;;;;;43.63;19.77;;;;;;;;;;5052189;28;20036;-75
2022/12/01 00:34:54;;;;;;;44.67;17.17;;;;;;;;;;5004560;28;20040;-79
2022/12/01 00:37:20;;;;;;;40.43;18.67;;;;;;;;;;5022837;28;20589;-81
2022/12/01 00:39:46;;;;;;;46.93;18.47;;;;;;;;;;5012622;28;20043;-81
2022/12/01 00:42:12;;;;;;;41.70;18.03;;;;;;;;;;5031083;28;20275;-81
2022/12/01 00:44:40;;;;;;;45.77;18.50;;;;;;;;;;5030335;28;20326;-80
2022/12/01 00:47:06;;;;;;;38.90;17.33;;;;;;;;;;5009202;28;20754;-76
2022/12/01 00:49:32;;;;;;;44.10;16.53;;;;;;;;;;5035858;28;20280;-80
2022/12/01 00:51:58;;;;;;;34.37;14.67;;;;;;;;;;5019323;28;20044;-79
2022/12/01 00:54:24;;;;;;;40.73;15.70;;;;;;;;;;5041199;28;20614;-81
2022/12/01 00:56:55;;;;;;;36.28;16.05;;;;;;;;;;5058416;28;20598;-80
2022/12/01 00:59:22;;;;;;;48.80;16.60;;;;;;;;;;5055851;28;20067;-80
2022/12/01 01:01:51;;;;;;;38.57;15.57;;;;;;;;;;5035003;28;20283;-77
2022/12/01 01:04:21;;;;;;;37.40;15.33;;;;;;;;;;5075403;28;20328;-80
2022/12/01 01:06:51;;;;;;;34.20;14.40;;;;;;;;;;5079031;28;20308;-81
2022/12/01 01:09:22;;;;;;;48.50;16.00;;;;;;;;;;5073888;28;20307;-79
2022/12/01 01:11:55;;;;;;;44.27;15.17;;;;;;;;;;5054299;28;20374;-78
2022/12/01 01:14:21;;;;;;;49.40;17.13;;;;;;;;;;5057564;28;20377;-81
2022/12/01 01:16:47;;;;;;;45.80;16.13;;;;;;;;;;5059058;28;20032;-80
2022/12/01 01:19:14;;;;;;;43.93;15.30;;;;;;;;;;5072822;28;20278;-83
2022/12/01 01:21:48;;;;;;;42.80;16.07;;;;;;;;;;5075846;28;20247;-82
2022/12/01 01:24:24;;;;;;;41.70;14.67;;;;;;;;;;5078186;28;20310;-82
2022/12/01 01:26:54;;;;;;;46.03;15.90;;;;;;;;;;5070731;28;20278;-82
2022/12/01 01:29:22;;;;;;;45.20;16.73;;;;;;;;;;5067803;28;20283;-81
2022/12/01 01:31:49;;;;;;;38.17;15.40;;;;;;;;;;5082428;28;20281;-81
2022/12/01 01:34:19;;;;;;;35.83;15.67;;;;;;;;;;5067594;28;20806;-81
2022/12/01 01:36:47;;;;;;;46.10;17.20;;;;;;;;;;5071129;28;20274;-82
2022/12/01 01:39:16;;;;;;;42.45;15.85;;;;;;;;;;5076612;28;20286;-77
2022/12/01 01:41:42;;;;;;;44.70;16.20;;;;;;;;;;5054682;28;20064;-78
2022/12/01 01:44:27;;;;;;;50.37;17.20;;;;;;;;;;5054529;28;20796;-78
2022/12/01 01:46:52;;;;;;;36.60;15.60;;;;;;;;;;5038040;28;20376;-75
2022/12/01 01:49:18;;;;;;;34.43;15.07;;;;;;;;;;5054624;28;20283;-75
2022/12/01 01:51:45;;;;;;;32.03;13.90;;;;;;;;;;5054857;28;20110;-75
2022/12/01 01:54:23;;;;;;;44.73;15.40;;;;;;;;;;5062318;28;20032;-77
2022/12/01 01:56:50;;;;;;;46.57;15.03;;;;;;;;;;5058046;28;20776;-80
2022/12/01 01:59:21;;;;;;;37.60;14.73;;;;;;;;;;5055565;28;20283;-78
2022/12/01 02:01:50;;;;;;;26.23;12.57;;;;;;;;;;5087806;28;20407;-77
2022/12/01 02:04:17;;;;;;;35.27;13.37;;;;;;;;;;5054098;28;20649;-77
2022/12/01 02:06:43;;;;;;;32.97;13.10;;;;;;;;;;5054265;28;20286;-77
2022/12/01 02:09:11;;;;;;;31.53;12.90;;;;;;;;;;5054377;28;20275;-77
2022/12/01 02:11:55;;;;;;;40.03;13.27;;;;;;;;;;5054059;28;20067;-77
2022/12/01 02:14:28;;;;;;;32.17;13.13;;;;;;;;;;5070421;28;20278;-79
2022/12/01 02:17:04;;;;;;;44.37;14.30;;;;;;;;;;5037690;28;20287;-78
2022/12/01 02:19:34;;;;;;;41.07;15.50;;;;;;;;;;5037639;28;20279;-76
2022/12/01 02:22:02;;;;;;;39.70;15.17;;;;;;;;;;5037634;28;20291;-79
2022/12/01 02:24:47;;;;;;;41.50;14.17;;;;;;;;;;5038635;28;20303;-77
2022/12/01 02:27:31;;;;;;;44.10;15.30;;;;;;;;;;5037333;28;20286;-76
2022/12/01 02:30:03;;;;;;;39.70;14.53;;;;;;;;;;5037727;28;20433;-76
2022/12/01 02:32:35;;;;;;;38.13;14.67;;;;;;;;;;5054551;28;20803;-78
2022/12/01 02:35:12;;;;;;;32.78;14.25;;;;;;;;;;5054157;28;20305;-76
2022/12/01 02:37:57;;;;;;;41.77;15.53;;;;;;;;;;5037265;28;20036;-76
2022/12/01 02:40:29;;;;;;;33.67;14.30;;;;;;;;;;5037607;28;20278;-79
2022/12/01 02:43:15;;;;;;;36.50;13.03;;;;;;;;;;5054310;28;20385;-78
2022/12/01 02:46:08;;;;;;;42.23;14.10;;;;;;;;;;5052936;28;20361;-80
2022/12/01 02:48:34;;;;;;;37.23;14.73;;;;;;;;;;4988074;28;20754;-80
2022/12/01 02:51:06;;;;;;;36.57;15.23;;;;;;;;;;5021284;28;20267;-79
2022/12/01 02:53:32;;;;;;;37.03;15.70;;;;;;;;;;5022296;28;20287;-81
2022/12/01 02:55:58;;;;;;;34.37;14.70;;;;;;;;;;5022536;28;20282;-80
2022/12/01 02:58:24;;;;;;;37.30;13.90;;;;;;;;;;5022061;28;20283;-80
2022/12/01 03:01:09;;;;;;;50.93;15.70;;;;;;;;;;5021084;28;20032;-78
2022/12/01 03:03:35;;;;;;;47.30;14.97;;;;;;;;;;5020697;28;20041;-78
2022/12/01 03:06:13;;;;;;;48.60;14.40;;;;;;;;;;5021130;28;20280;-80
2022/12/01 03:08:51;;;;;;;35.47;13.93;;;;;;;;;;5021479;28;20041;-79
2022/12/01 03:11:25;;;;;;;44.93;15.37;;;;;;;;;;5021942;28;20271;-79
2022/12/01 03:14:14;;;;;;;50.93;14.97;;;;;;;;;;5056299;28;20852;-79
2022/12/01 03:16:46;;;;;;;36.53;14.87;;;;;;;;;;5037396;28;20268;-77
2022/12/01 03:19:15;;;;;;;40.83;14.33;;;;;;;;;;5053768;28;20341;-79
2022/12/01 03:21:45;;;;;;;45.93;15.80;;;;;;;;;;5020895;28;20374;-79
2022/12/01 03:24:16;;;;;;;45.42;15.20;;;;;;;;;;5037004;28;20680;-79
2022/12/01 03:26:47;;;;;;;40.13;14.23;;;;;;;;;;5020257;28;20450;-79
2022/12/01 03:29:22;;;;;;;49.03;15.83;;;;;;;;;;5020546;28;20318;-78
2022/12/01 03:31:55;;;;;;;50.80;14.07;;;;;;;;;;5037126;28;20336;-79
2022/12/01 03:34:31;;;;;;;37.00;13.10;;;;;;;;;;5020419;28;20381;-79
2022/12/01 03:37:00;;;;;;;46.57;14.57;;;;;;;;;;5054458;28;20290;-79
2022/12/01 03:39:28;;;;;;;50.23;15.17;;;;;;;;;;5053321;28;20315;-78
2022/12/01 03:42:27;;;;;;;41.80;14.80;;;;;;;;;;5019871;28;20880;-78
2022/12/01 03:44:55;;;;;;;42.87;14.17;;;;;;;;;;5021025;28;20353;-79
2022/12/01 03:47:25;;;;;;;49.43;13.63;;;;;;;;;;5020249;28;20294;-76
2022/12/01 03:49:52;;;;;;;32.85;13.30;;;;;;;;;;5053139;28;20281;-80
2022/12/01 03:52:21;;;;;;;46.03;13.23;;;;;;;;;;5019826;28;20033;-80
2022/12/01 03:55:02;;;;;;;40.73;14.57;;;;;;;;;;5035904;28;20283;-78
2022/12/01 03:57:50;;;;;;;43.67;14.90;;;;;;;;;;5052521;28;20291;-79
2022/12/01 04:00:19;;;;;;;38.10;13.73;;;;;;;;;;5018930;28;20676;-77
2022/12/01 04:02:54;;;;;;;42.40;14.20;;;;;;;;;;5031191;28;20298;-77
2022/12/01 04:05:44;;;;;;;35.47;13.70;;;;;;;;;;5051951;28;20292;-78
2022/12/01 04:08:37;;;;;;;33.57;13.37;;;;;;;;;;5056042;28;20283;-78
2022/12/01 04:14:24;;;;;;;34.20;12.67;;;;;;;;;;5051583;28;20275;-78
2022/12/01 04:16:53;;;;;;;36.90;13.13;;;;;;;;;;5052774;28;20271;-80
2022/12/01 04:19:24;;;;;;;33.77;13.97;;;;;;;;;;5052210;28;20287;-78
2022/12/01 04:21:52;;;;;;;39.60;13.73;;;;;;;;;;5036589;28;20272;-76
2022/12/01 04:24:19;;;;;;;35.80;14.13;;;;;;;;;;5051836;28;20339;-74
2022/12/01 04:26:49;;;;;;;41.83;15.10;;;;;;;;;;5019496;28;20275;-76
2022/12/01 04:29:15;;;;;;;37.70;14.00;;;;;;;;;;5051757;28;20302;-73
2022/12/01 04:31:40;;;;;;;40.50;14.87;;;;;;;;;;5018882;28;20068;-73
2022/12/01 04:34:06;;;;;;;38.47;14.13;;;;;;;;;;5019371;28;20036;-73
2022/12/01 04:36:33;;;;;;;42.87;15.17;;;;;;;;;;5019058;28;20124;-73
2022/12/01 04:39:01;;;;;;;40.53;15.07;;;;;;;;;;5051878;28;20784;-76
2022/12/01 04:41:26;;;;;;;42.50;15.13;;;;;;;;;;5019019;28;20272;-73
2022/12/01 04:43:53;;;;;;;43.50;14.60;;;;;;;;;;5035104;28;20471;-75
2022/12/01 04:46:20;;;;;;;40.43;14.93;;;;;;;;;;5051513;28;20037;-77
2022/12/01 04:48:45;;;;;;;38.90;14.97;;;;;;;;;;5018744;28;20287;-78
2022/12/01 04:51:12;;;;;;;42.57;14.67;;;;;;;;;;5019289;28;20329;-77
2022/12/01 04:53:40;;;;;;;36.07;14.57;;;;;;;;;;5018665;28;20642;-79
2022/12/01 04:56:05;;;;;;;33.40;13.33;;;;;;;;;;5019009;28;20489;-77
2022/12/01 04:58:36;;;;;;;37.03;14.43;;;;;;;;;;5008408;28;20298;-77
2022/12/01 05:01:04;;;;;;;36.77;13.53;;;;;;;;;;5029875;28;20467;-75
2022/12/01 05:03:32;;;;;;;31.10;13.17;;;;;;;;;;5031125;28;20308;-74
2022/12/01 05:06:08;;;;;;;31.60;12.33;;;;;;;;;;5029550;28;20338;-78
2022/12/01 05:08:35;;;;;;;31.47;14.13;;;;;;;;;;5029344;28;20283;-78
2022/12/01 05:11:07;;;;;;;32.20;13.73;;;;;;;;;;5030567;28;20279;-78
2022/12/01 05:13:39;;;;;;;41.50;15.07;;;;;;;;;;5012836;28;20734;-78
2022/12/01 05:22:31;;;;;;;38.03;14.53;;;;;;;;;;5031172;28;20268;-75
2022/12/01 05:24:58;;;;;;;35.00;14.60;;;;;;;;;;4997226;28;20308;-74
2022/12/01 05:27:24;;;;;;;32.87;12.83;;;;;;;;;;5030593;28;20291;-68
2022/12/01 05:29:50;;;;;;;42.07;14.20;;;;;;;;;;4997418;28;20272;-67
2022/12/01 05:32:16;;;;;;;33.93;12.97;;;;;;;;;;4997259;28;20541;-69
2022/12/01 05:34:41;;;;;;;39.30;15.07;;;;;;;;;;4997074;28;20045;-67
2022/12/01 05:37:07;;;;;;;35.27;13.60;;;;;;;;;;4997539;28;20472;-68
2022/12/01 05:39:32;;;;;;;32.03;13.70;;;;;;;;;;5030026;28;20037;-67
2022/12/01 05:41:58;;;;;;;46.40;14.70;;;;;;;;;;5013611;28;20432;-67
2022/12/01 05:44:23;;;;;;;33.73;13.43;;;;;;;;;;4996809;28;20051;-67
2022/12/01 05:46:49;;;;;;;38.87;14.30;;;;;;;;;;4997230;28;20506;-68
2022/12/01 05:49:15;;;;;;;35.53;14.40;;;;;;;;;;4997077;28;20376;-68
2022/12/01 05:51:41;;;;;;;28.90;13.13;;;;;;;;;;5013821;28;20416;-68
2022/12/01 05:54:07;;;;;;;32.53;12.97;;;;;;;;;;4997413;28;20069;-69
2022/12/01 05:56:32;;;;;;;32.10;15.07;;;;;;;;;;4996907;28;20694;-67
2022/12/01 05:58:58;;;;;;;47.03;14.17;;;;;;;;;;4996602;28;20040;-68
2022/12/01 06:01:24;;;;;;;39.87;13.73;;;;;;;;;;4999189;28;20013;-68
2022/12/01 06:03:51;;;;;;;39.70;15.13;;;;;;;;;;5011575;28;20064;-69
2022/12/01 06:06:18;;;;;;;46.13;14.60;;;;;;;;;;5019858;28;20279;-67
2022/12/01 06:08:44;;;;;;;52.20;14.77;;;;;;;;;;5016332;28;20332;-67
2022/12/01 06:11:10;;;;;;;43.63;16.40;;;;;;;;;;5016461;28;20037;-68
2022/12/01 06:13:35;;;;;;;45.27;15.00;;;;;;;;;;5015754;28;20581;-67
2022/12/01 06:16:03;;;;;;;56.80;15.53;;;;;;;;;;5032778;28;20056;-68
2022/12/01 06:18:33;;;;;;;52.93;15.60;;;;;;;;;;5016167;28;20086;-69
2022/12/01 06:20:58;;;;;;;51.30;16.40;;;;;;;;;;5016275;28;20429;-68
2022/12/01 06:23:24;;;;;;;73.97;19.50;;;;;;;;;;5016405;28;20098;-69
2022/12/01 06:25:50;;;;;;;93.57;21.77;;;;;;;;;;5019473;28;20042;-68
2022/12/01 06:28:18;;;;;;;96.80;23.13;;;;;;;;;;5019403;28;20086;-69
2022/12/01 06:30:46;;;;;;;;;;;;;;;;;;5018244;28;20063;-70
2022/12/01 06:33:12;;;;;;;80.23;22.47;;;;;;;;;;5033474;28;19912;-70
2022/12/01 06:35:38;;;;;;;85.67;19.83;;;;;;;;;;5036731;28;20039;-68
2022/12/01 06:38:04;;;;;;;91.53;22.30;;;;;;;;;;5036214;28;20025;-69
2022/12/01 06:40:29;;;;;;;87.83;22.17;;;;;;;;;;5036108;28;20049;-69
2022/12/01 06:42:58;;;;;;;87.60;22.87;;;;;;;;;;5019592;28;20095;-69
2022/12/01 06:45:24;;;;;;;81.23;23.53;;;;;;;;;;5036023;28;20086;-72
2022/12/01 06:47:52;;;;;;;84.20;21.80;;;;;;;;;;5019735;28;20138;-71
2022/12/01 06:50:17;;;;;;;79.53;22.07;;;;;;;;;;5036121;28;20498;-70
2022/12/01 06:52:43;;;;;;;93.20;21.10;;;;;;;;;;5035078;28;20068;-71
2022/12/01 06:55:10;;;;;;;83.10;22.73;;;;;;;;;;5019729;28;20044;-70
2022/12/01 06:57:38;;;;;;;74.37;22.43;;;;;;;;;;5036156;28;20036;-71
2022/12/01 07:00:05;;;;;;;77.27;22.10;;;;;;;;;;5052334;28;20032;-71
2022/12/01 07:02:31;;;;;;;80.20;22.40;;;;;;;;;;5054438;28;20037;-70
2022/12/01 07:04:57;;;;;;;68.87;21.27;;;;;;;;;;5022893;28;20040;-70
2022/12/01 07:07:23;;;;;;;75.60;22.57;;;;;;;;;;5055272;28;20518;-70
2022/12/01 07:09:48;;;;;;;68.37;20.27;;;;;;;;;;5073276;28;20107;-70
2022/12/01 07:12:14;;;;;;;78.03;22.27;;;;;;;;;;5021954;28;20040;-71
2022/12/01 07:14:41;;;;;;;65.70;20.47;;;;;;;;;;5055909;28;20146;-71
2022/12/01 07:17:08;;;;;;;65.30;19.83;;;;;;;;;;5022777;28;20127;-72
2022/12/01 07:19:34;;;;;;;64.60;20.87;;;;;;;;;;5055587;28;20047;-70
2022/12/01 07:21:59;;;;;;;63.73;21.93;;;;;;;;;;5038890;28;20033;-72
2022/12/01 07:24:25;;;;;;;33.60;12.00;;;;;;;;;;5022399;28;20067;-71
2022/12/01 07:26:51;;;;;;;38.70;14.13;;;;;;;;;;5022544;28;20485;-71
2022/12/01 07:29:16;;;;;;;51.07;17.30;;;;;;;;;;5022246;28;20047;-70
2022/12/01 07:31:42;;;;;;;46.17;17.10;;;;;;;;;;5038683;28;20028;-70
2022/12/01 07:34:12;;;;;;;52.30;18.97;;;;;;;;;;5034850;28;20025;-70
2022/12/01 07:36:38;;;;;;;60.43;19.27;;;;;;;;;;5018409;28;20042;-71
2022/12/01 07:39:05;;;;;;;57.80;18.87;;;;;;;;;;5017779;28;20025;-70
2022/12/01 07:41:30;;;;;;;37.17;14.67;;;;;;;;;;5053259;28;20039;-71
2022/12/01 07:43:56;;;;;;;29.53;11.57;;;;;;;;;;5019848;28;20036;-71
2022/12/01 07:46:24;;;;;;;47.60;17.37;;;;;;;;;;5019956;28;20127;-72
2022/12/01 07:48:51;;;;;;;38.60;15.40;;;;;;;;;;5020399;28;20090;-69
2022/12/01 07:51:17;;;;;;;69.37;21.50;;;;;;;;;;5019849;28;20071;-71
2022/12/01 07:53:44;;;;;;;51.50;20.00;;;;;;;;;;5012949;28;20036;-71
2022/12/01 07:56:09;;;;;;;44.67;18.13;;;;;;;;;;5036648;28;20098;-71
2022/12/01 07:58:36;;;;;;;34.17;14.50;;;;;;;;;;5020559;28;20032;-71
2022/12/01 08:01:11;;;;;;;54.73;22.60;;;;;;;;;;5050701;28;20124;-72
2022/12/01 08:03:37;;;;;;;70.97;26.87;;;;;;;;;;5036190;28;20374;-71
2022/12/01 08:06:03;;;;;;;90.70;31.20;;;;;;;;;;5020000;28;20032;-71
2022/12/01 08:08:31;;;;;;;82.68;30.10;;;;;;;;;;5035237;28;20032;-71
2022/12/01 08:10:59;;;;;;;84.03;30.65;;;;;;;;;;5036558;28;20041;-71
2022/12/01 08:13:24;;;;;;;75.57;28.70;;;;;;;;;;5020417;28;20032;-71
2022/12/01 08:15:50;;;;;;;71.35;28.98;;;;;;;;;;5037949;28;20356;-71
2022/12/01 08:18:16;;;;;;;79.20;30.67;;;;;;;;;;5021250;28;20466;-71
2022/12/01 08:20:42;;;;;;;74.82;28.92;;;;;;;;;;5054661;28;20386;-72
2022/12/01 08:23:08;;;;;;;66.75;28.75;;;;;;;;;;5054092;28;20040;-71
2022/12/01 08:25:35;;;;;;;63.60;25.48;;;;;;;;;;5054430;28;20082;-71
2022/12/01 08:28:01;;;;;;;61.67;25.20;;;;;;;;;;5019435;28;20040;-72
2022/12/01 08:30:28;;;;;;;58.55;24.45;;;;;;;;;;5020559;28;20108;-72
2022/12/01 08:32:55;;;;;;;56.00;25.25;;;;;;;;;;5021137;28;20106;-71
2022/12/01 08:35:20;;;;;;;56.80;23.40;;;;;;;;;;5053772;28;20040;-72
2022/12/01 08:37:46;;;;;;;46.45;22.40;;;;;;;;;;5020909;28;20032;-72
2022/12/01 08:40:12;;;;;;;38.55;20.10;;;;;;;;;;5037411;28;20391;-72
2022/12/01 08:42:38;;;;;;;40.92;19.45;;;;;;;;;;5037653;28;20033;-72
2022/12/01 08:45:04;;;;;;;39.28;19.83;;;;;;;;;;5020439;28;20434;-73
2022/12/01 08:47:30;;;;;;;42.95;20.90;;;;;;;;;;5020210;28;20040;-72
2022/12/01 08:49:55;;;;;;;43.45;22.80;;;;;;;;;;5053660;28;20032;-71
2022/12/01 08:52:21;;;;;;;43.60;22.98;;;;;;;;;;5032131;28;20029;-71
2022/12/01 08:54:47;;;;;;;53.45;25.42;;;;;;;;;;5000751;28;20107;-71
2022/12/01 08:57:12;;;;;;;54.47;26.63;;;;;;;;;;5017364;28;20045;-71
2022/12/01 08:59:38;;;;;;;52.72;25.58;;;;;;;;;;5051077;28;20348;-70
2022/12/01 09:02:05;;;;;;;56.17;27.45;;;;;;;;;;5016754;28;20036;-70
2022/12/01 09:04:32;;;;;;;55.60;26.77;;;;;;;;;;5000586;28;20056;-70
2022/12/01 09:06:57;;;;;;;52.07;24.53;;;;;;;;;;5001150;28;20033;-70
2022/12/01 09:09:25;;;;;;;45.93;24.33;;;;;;;;;;5033507;28;20151;-71
2022/12/01 09:11:51;;;;;;;58.20;24.30;;;;;;;;;;5016233;28;20087;-71
2022/12/01 09:14:18;;;;;;;52.67;23.23;;;;;;;;;;5034086;28;20056;-70
2022/12/01 09:16:45;;;;;;;55.73;23.60;;;;;;;;;;5017503;28;20503;-71
2022/12/01 09:19:13;;;;;;;49.30;22.47;;;;;;;;;;4999305;28;20029;-70
2022/12/01 09:21:39;;;;;;;46.73;21.40;;;;;;;;;;4998479;28;20103;-70
2022/12/01 09:24:05;;;;;;;51.77;22.50;;;;;;;;;;4997898;28;20048;-69
2022/12/01 09:26:34;;;;;;;53.27;24.20;;;;;;;;;;5015186;28;20079;-69
2022/12/01 09:29:05;;;;;;;58.13;25.70;;;;;;;;;;5031277;28;20068;-69
2022/12/01 09:31:31;;;;;;;66.10;24.87;;;;;;;;;;5014796;28;20036;-70
2022/12/01 09:33:59;;;;;;;57.90;25.60;;;;;;;;;;4998827;28;20040;-68
2022/12/01 09:36:25;;;;;;;60.33;25.37;;;;;;;;;;5017234;28;20059;-70
2022/12/01 09:38:51;;;;;;;54.43;23.93;;;;;;;;;;5017141;28;20036;-68
2022/12/01 09:41:25;;;;;;;51.37;23.90;;;;;;;;;;5016843;28;20040;-70
2022/12/01 09:44:04;;;;;;;55.17;24.43;;;;;;;;;;5000313;28;20041;-70
2022/12/01 09:46:33;;;;;;;59.47;23.27;;;;;;;;;;5032800;28;20132;-70
2022/12/01 09:49:00;;;;;;;53.20;23.20;;;;;;;;;;5016590;28;20028;-70
2022/12/01 09:51:27;;;;;;;57.50;24.80;;;;;;;;;;5032753;28;20456;-69
2022/12/01 09:53:55;;;;;;;49.63;23.73;;;;;;;;;;5000147;28;20080;-70
2022/12/01 09:56:23;;;;;;;55.03;23.88;;;;;;;;;;5016588;28;20093;-70
2022/12/01 09:58:51;;;;;;;53.78;25.67;;;;;;;;;;5016608;28;20047;-71
2022/12/01 10:01:18;;;;;;;55.78;23.45;;;;;;;;;;5021137;28;20037;-70
2022/12/01 10:03:47;;;;;;;61.22;25.55;;;;;;;;;;5004179;28;20115;-70
2022/12/01 10:06:19;;;;;;;52.10;25.50;;;;;;;;;;5036784;28;20044;-69
2022/12/01 10:09:01;;;;;;;53.08;25.40;;;;;;;;;;5020866;28;20490;-70
2022/12/01 10:11:39;;;;;;;50.20;25.63;;;;;;;;;;5036347;28;20482;-70
2022/12/01 10:14:05;;;;;;;49.58;25.88;;;;;;;;;;5020099;28;20052;-70
2022/12/01 10:16:54;;;;;;;56.78;26.65;;;;;;;;;;5020251;28;20097;-72
2022/12/01 10:19:27;;;;;;;56.15;26.17;;;;;;;;;;5020426;28;20045;-70
2022/12/01 10:22:04;;;;;;;57.25;26.83;;;;;;;;;;5020429;28;20090;-69
2022/12/01 10:24:32;;;;;;;54.40;27.52;;;;;;;;;;5053919;28;20056;-70
2022/12/01 10:27:04;;;;;;;55.42;26.98;;;;;;;;;;5019854;28;20076;-70
2022/12/01 10:29:45;;;;;;;52.20;28.67;;;;;;;;;;5020031;28;20037;-69
2022/12/01 10:32:11;;;;;;;59.22;29.52;;;;;;;;;;5003454;28;20045;-70
2022/12/01 10:34:38;;;;;;;59.03;27.55;;;;;;;;;;5019779;28;20099;-69
2022/12/01 10:37:05;;;;;;;51.53;28.38;;;;;;;;;;5019806;28;20119;-70
2022/12/01 10:39:33;;;;;;;51.50;27.08;;;;;;;;;;5036344;28;20036;-69
2022/12/01 10:42:04;;;;;;;63.42;29.33;;;;;;;;;;5036160;28;20040;-69
2022/12/01 10:44:30;;;;;;;67.55;27.73;;;;;;;;;;5036032;28;20056;-72
2022/12/01 10:46:55;;;;;;;56.72;26.30;;;;;;;;;;5019566;28;20498;-69
2022/12/01 10:49:33;;;;;;;50.05;25.17;;;;;;;;;;5003283;28;20482;-68
2022/12/01 10:51:59;;;;;;;52.95;26.00;;;;;;;;;;5048764;28;20119;-72
2022/12/01 10:54:36;;;;;;;64.90;26.05;;;;;;;;;;5055885;28;20043;-70
2022/12/01 10:57:02;;;;;;;61.03;27.02;;;;;;;;;;5056222;28;20127;-69
2022/12/01 10:59:33;;;;;;;56.40;26.00;;;;;;;;;;5055771;28;20502;-69
2022/12/01 11:02:00;;;;;;;58.30;25.95;;;;;;;;;;5039032;28;20125;-68
2022/12/01 11:04:30;;;;;;;52.40;23.98;;;;;;;;;;5055344;28;20150;-68
2022/12/01 11:06:55;;;;;;;56.40;25.35;;;;;;;;;;5038877;28;20474;-70
2022/12/01 11:09:27;;;;;;;49.17;25.08;;;;;;;;;;5055672;28;20048;-71
2022/12/01 11:11:54;;;;;;;53.88;24.77;;;;;;;;;;5021472;28;20028;-71
2022/12/01 11:14:22;;;;;;;58.38;27.83;;;;;;;;;;5039159;28;20182;-70
2022/12/01 11:16:49;;;;;;;60.17;26.85;;;;;;;;;;5022888;28;20047;-68
2022/12/01 11:19:19;;;;;;;56.60;26.58;;;;;;;;;;5055540;28;20043;-70
2022/12/01 11:21:46;;;;;;;66.90;29.70;;;;;;;;;;5039062;28;20044;-72
2022/12/01 11:24:30;;;;;;;75.17;30.47;;;;;;;;;;5021838;28;20044;-70
2022/12/01 11:26:57;;;;;;;72.33;29.10;;;;;;;;;;5038483;28;20540;-70
2022/12/01 11:29:31;;;;;;;88.17;32.87;;;;;;;;;;5021853;28;20032;-69
2022/12/01 11:31:57;;;;;;;75.67;32.63;;;;;;;;;;5038239;28;20479;-70
2022/12/01 11:34:27;;;;;;;72.33;30.73;;;;;;;;;;5021965;28;20033;-70
2022/12/01 11:36:54;;;;;;;76.70;29.48;;;;;;;;;;5022200;28;20032;-69
2022/12/01 11:39:23;;;;;;;66.50;29.80;;;;;;;;;;5038925;28;20037;-70
2022/12/01 11:41:53;;;;;;;65.80;29.63;;;;;;;;;;5022374;28;20089;-70
2022/12/01 11:44:19;;;;;;;70.05;28.88;;;;;;;;;;5021970;28;20048;-70
2022/12/01 11:46:45;;;;;;;62.10;27.80;;;;;;;;;;5038506;28;20044;-70
2022/12/01 11:49:18;;;;;;;68.83;27.37;;;;;;;;;;5022408;28;20029;-70
2022/12/01 11:51:44;;;;;;;71.43;27.73;;;;;;;;;;5022328;28;20033;-70
2022/12/01 11:54:23;;;;;;;74.33;27.77;;;;;;;;;;5038076;28;20470;-70
2022/12/01 11:56:50;;;;;;;73.83;27.37;;;;;;;;;;5038488;28;20516;-69
2022/12/01 11:59:23;;;;;;;81.57;26.93;;;;;;;;;;5038369;28;20083;-69
2022/12/01 12:01:59;;;;;;;76.50;27.70;;;;;;;;;;5054599;28;20035;-68
2022/12/01 12:04:50;;;;;;;79.17;27.43;;;;;;;;;;5052471;28;20155;-69
2022/12/01 12:07:42;;;;;;;86.18;31.05;;;;;;;;;;5036009;28;20056;-68
2022/12/01 12:10:21;;;;;;;73.13;28.13;;;;;;;;;;5016543;28;20063;-69
2022/12/01 12:13:05;;;;;;;73.83;29.07;;;;;;;;;;5019186;28;20134;-68
2022/12/01 12:15:46;;;;;;;76.93;27.80;;;;;;;;;;5034017;28;20032;-69
2022/12/01 12:18:12;;;;;;;;;;;;;;;;;;5018390;28;20037;-69
2022/12/01 12:20:50;;;;;;;70.13;24.43;;;;;;;;;;5017835;28;19908;-69
2022/12/01 12:23:25;;;;;;;70.30;25.17;;;;;;;;;;5001263;28;20040;-69
2022/12/01 12:26:00;;;;;;;74.73;26.97;;;;;;;;;;5017983;28;20060;-68
2022/12/01 12:28:44;;;;;;;64.10;25.53;;;;;;;;;;5017810;28;20455;-68
2022/12/01 12:31:15;;;;;;;67.83;25.47;;;;;;;;;;5001553;28;20037;-69
2022/12/01 12:34:04;;;;;;;78.23;25.00;;;;;;;;;;5001348;28;20032;-69
2022/12/01 12:36:30;;;;;;;69.23;24.83;;;;;;;;;;4983008;28;20080;-69
2022/12/01 12:39:09;;;;;;;70.70;27.00;;;;;;;;;;5017909;28;20037;-71
2022/12/01 12:41:38;;;;;;;70.80;27.07;;;;;;;;;;5017876;28;20044;-68
2022/12/01 12:44:20;;;;;;;82.60;29.20;;;;;;;;;;5001217;28;20052;-68
2022/12/01 12:46:46;;;;;;;;;;;;;;;;;;5001829;28;20033;-69
2022/12/01 12:49:16;;;;;;;84.20;27.47;;;;;;;;;;5000348;28;19922;-68
2022/12/01 12:51:45;;;;;;;63.70;26.77;;;;;;;;;;5018321;28;20916;-68
2022/12/01 12:54:11;;;;;;;76.50;30.90;;;;;;;;;;5053056;28;20032;-68
2022/12/01 12:56:38;;;;;;;67.23;28.93;;;;;;;;;;5053349;28;20032;-68
2022/12/01 12:59:25;;;;;;;88.23;29.93;;;;;;;;;;5070146;28;20043;-68
2022/12/01 13:01:58;;;;;;;75.70;29.83;;;;;;;;;;5053265;28;20039;-68
2022/12/01 13:04:29;;;;;;;71.53;29.73;;;;;;;;;;5036492;28;20623;-68
2022/12/01 13:06:59;;;;;;;75.97;28.40;;;;;;;;;;5053419;28;20505;-67
2022/12/01 13:09:27;;;;;;;70.07;28.63;;;;;;;;;;5053115;28;20032;-69
2022/12/01 13:12:02;;;;;;;68.20;27.07;;;;;;;;;;5035752;28;20199;-67
2022/12/01 13:14:29;;;;;;;68.80;27.73;;;;;;;;;;5036643;28;20131;-68
2022/12/01 13:16:57;;;;;;;68.87;28.23;;;;;;;;;;5053191;28;20166;-71
2022/12/01 13:19:42;;;;;;;68.07;24.83;;;;;;;;;;5052941;28;20048;-67
2022/12/01 13:22:11;;;;;;;56.17;21.33;;;;;;;;;;5086024;28;20467;-68
2022/12/01 13:24:36;;;;;;;49.90;21.20;;;;;;;;;;5052830;28;20193;-68
2022/12/01 13:27:04;;;;;;;58.63;22.00;;;;;;;;;;5064871;28;20131;-68
2022/12/01 13:29:34;;;;;;;64.53;23.47;;;;;;;;;;5019750;28;20055;-68
2022/12/01 13:32:00;;;;;;;58.83;23.13;;;;;;;;;;5019970;28;20036;-68
2022/12/01 13:34:38;;;;;;;59.40;22.10;;;;;;;;;;5017921;28;20047;-68
2022/12/01 13:37:05;;;;;;;76.37;25.93;;;;;;;;;;5053017;28;20035;-68
2022/12/01 13:39:36;;;;;;;73.43;26.80;;;;;;;;;;5036294;28;20052;-67
2022/12/01 13:42:06;;;;;;;78.13;24.73;;;;;;;;;;5019173;28;20454;-68
2022/12/01 13:44:31;;;;;;;56.40;23.53;;;;;;;;;;5019894;28;20146;-68
2022/12/01 13:46:57;;;;;;;61.73;22.87;;;;;;;;;;5053016;28;20047;-68
2022/12/01 13:49:32;;;;;;;62.33;22.63;;;;;;;;;;5035936;28;20032;-67
2022/12/01 13:52:13;;;;;;;54.03;21.80;;;;;;;;;;5036235;28;20064;-69
2022/12/01 13:54:39;;;;;;;;;;;;;;;;;;5036396;28;20963;-69
2022/12/01 13:57:10;;;;;;;42.13;17.73;;;;;;;;;;5035992;28;19912;-68
2022/12/01 13:59:57;;;;;;;46.93;19.07;;;;;;;;;;5019337;28;20054;-68
2022/12/01 14:02:24;;;;;;;51.40;18.73;;;;;;;;;;4980591;28;20036;-68
2022/12/01 14:04:50;;;;;;;48.20;18.67;;;;;;;;;;5019393;28;20143;-67
2022/12/01 14:07:19;;;;;;;55.10;20.83;;;;;;;;;;5020076;28;20127;-68
2022/12/01 14:09:50;;;;;;;57.70;21.50;;;;;;;;;;5036785;28;20052;-68
2022/12/01 14:12:21;;;;;;;60.37;20.37;;;;;;;;;;5035275;28;20129;-68
2022/12/01 14:14:53;;;;;;;62.90;21.83;;;;;;;;;;5035964;28;20059;-67
2022/12/01 14:17:25;;;;;;;62.00;21.10;;;;;;;;;;5019278;28;20122;-68
2022/12/01 14:19:51;;;;;;;50.13;20.17;;;;;;;;;;5019140;28;20047;-67
2022/12/01 14:22:30;;;;;;;53.83;21.83;;;;;;;;;;5052327;28;20028;-67
2022/12/01 14:24:56;;;;;;;58.27;23.00;;;;;;;;;;5035596;28;20048;-69
2022/12/01 14:27:41;;;;;;;73.97;26.07;;;;;;;;;;5019595;28;20427;-68
2022/12/01 14:30:25;;;;;;;72.50;29.33;;;;;;;;;;5035490;28;20336;-67
2022/12/01 14:32:51;;;;;;;88.57;33.33;;;;;;;;;;5019526;28;20036;-67
2022/12/01 14:35:17;;;;;;;94.73;33.73;;;;;;;;;;5052666;28;20485;-68
2022/12/01 14:37:45;;;;;;;99.03;32.90;;;;;;;;;;5052113;28;20036;-68
2022/12/01 14:40:16;;;;;;;95.00;34.87;;;;;;;;;;5035371;28;20033;-69
2022/12/01 14:45:31;;;;;;;96.10;32.40;;;;;;;;;;5053079;28;20048;-68